Pittsburgh, PA (15202)

12:07 AM EST on February 11, 2016 (GMT -0500)
Perrysville | | Change Station
CLOSE
Current Station
Personal Weather Station
Location: Pittsburgh, PA
Elevation: 1175 ft
Nearby Weather Stations

Elev 1175 ft 40.54 °N, 80.04 °W | Updated 13 seconds ago

Overcast
Overcast
13.8 °F
Feels Like 9 °F
N
3.1
Wind Variable Wind from SW
Gusts 3.1 mph

Today
High -- | Low -- °F
--% Chance of Precip.
Yesterday
High -- | Low -- °F
Precip. -- in
Pressure 30.01 in
Visibility 7.0 miles
Clouds Scattered Clouds 1800 ft
Mostly Cloudy 3300 ft
Overcast 7000 ft
Windchill 9 °F
Dew Point 9 °F
Humidity 81%
Rainfall 0.00 in
Snow Depth Not available.
7:19 AM 5:50 PM
Waxing Crescent, 9% visible
METAR KPIT 110451Z 26009G16KT 7SM -SN SCT018 BKN033 OVC070 M10/M14 A2992 RMK AO2 SLP161 P0000 T11001139 410441100
Pressure 30.01 in
Visibility 7.0 miles
Clouds Scattered Clouds 1800 ft
Mostly Cloudy 3300 ft
Overcast 7000 ft
Windchill 9 °F
Dew Point 9 °F
Humidity 81%
Rainfall 0.00 in
Snow Depth Not available.
7:19 AM 5:50 PM
Waxing Crescent, 9% visible
METAR KPIT 110451Z 26009G16KT 7SM -SN SCT018 BKN033 OVC070 M10/M14 A2992 RMK AO2 SLP161 P0000 T11001139 410441100

10-Day Weather Forecast

Almanac

Astronomy

Feb. 11, 2016 Rise Set
Actual Time
Civil Twilight
Nautical Twilight
Astronomical Twilight
Moon
Length of Visible Light
Length of Day
Tomorrow will be .
, % of the Moon is Illuminated

Today's Extremes

State Highs State Lows

Community

WunderPhotos

Upload Photos

1,892,016 photos uploaded!

WunderBlog® & News

Nearby

Air Quality

  Air Quality AQ Index Pollutant
Not available.

Snow Depth

Station Depth Elevation

Earthquake Activity

City Distance Mag. Time & Date
Minimum magnitude displayed is 2.5.

Coastal Water Temperatures

Place Temperature

Stations

Nearby Weather Stations

Station Location Temp. Windchill Dew Point Humidity Wind Precip. Elev Updated Type
                   

Watches & Warnings

Winter Weather Advisory
Issued: 10:33 PM EST Feb. 10, 2016 – National Weather Service

... Winter Weather Advisory remains in effect until 7 am EST
Thursday...

* additional snow accumulation... 1 to 2 inches.

* Snow ending... snow showers will gradually diminish late
tonight.

* Impacts... hazardous travel conditions are expected due to snow.

Precautionary/preparedness actions...

A Winter Weather Advisory means that periods of snow... sleet... or
freezing rain will cause travel difficulties. Be prepared for
slippery roads and limited visibilities... and use caution while
driving.